createdAt,value
2019-05-23T00:00:40.429Z,10.75
2019-05-23T00:03:33.783Z,11.73
2019-05-23T00:06:21.697Z,12.28
2019-05-23T00:09:08.301Z,11.65
2019-05-23T00:11:40.009Z,11.68
2019-05-23T00:14:24.393Z,11.38
2019-05-23T00:16:51.892Z,12.55
2019-05-23T00:19:20.317Z,10.95
2019-05-23T00:21:48.538Z,11.53
2019-05-23T00:24:16.898Z,11.48
2019-05-23T00:26:44.355Z,11.10
2019-05-23T00:29:11.790Z,10.82
2019-05-23T00:31:55.840Z,9.53
2019-05-23T00:34:24.881Z,9.43
2019-05-23T00:36:53.938Z,9.80
2019-05-23T00:39:22.917Z,10.25
2019-05-23T00:41:51.941Z,9.48
2019-05-23T00:44:20.262Z,8.65
2019-05-23T00:46:48.541Z,9.13
2019-05-23T00:49:15.985Z,9.28
2019-05-23T00:51:43.209Z,8.75
2019-05-23T00:54:11.429Z,9.20
2019-05-23T00:56:38.938Z,9.18
2019-05-23T00:59:06.553Z,9.33
2019-05-23T01:01:33.852Z,9.03
2019-05-23T01:04:01.391Z,9.00
2019-05-23T01:06:29.047Z,9.28
2019-05-23T01:08:57.170Z,8.75
2019-05-23T01:11:24.991Z,9.45
2019-05-23T01:13:54.013Z,9.03
2019-05-23T01:16:24.454Z,9.18
2019-05-23T01:18:52.101Z,9.50
2019-05-23T01:21:21.965Z,9.00
2019-05-23T01:24:05.821Z,9.18
2019-05-23T01:26:33.995Z,8.75
2019-05-23T01:29:01.519Z,9.38
2019-05-23T01:31:30.602Z,10.28
2019-05-23T01:33:57.845Z,10.32
2019-05-23T01:36:26.475Z,10.45
2019-05-23T01:38:54.699Z,11.18
2019-05-23T01:41:22.420Z,10.30
2019-05-23T01:43:50.023Z,9.70
2019-05-23T01:46:17.677Z,10.50
2019-05-23T01:48:46.103Z,10.03
2019-05-23T01:51:13.574Z,10.40
2019-05-23T01:53:41.887Z,10.70
2019-05-23T01:56:10.471Z,11.05
2019-05-23T01:58:38.287Z,10.82
2019-05-23T02:01:06.782Z,10.30
2019-05-23T02:03:35.399Z,10.75
2019-05-23T02:06:03.341Z,10.45
2019-05-23T02:08:30.693Z,10.88
2019-05-23T02:10:57.945Z,10.28
2019-05-23T02:13:25.169Z,10.65
2019-05-23T02:15:53.231Z,10.60
2019-05-23T02:18:21.265Z,10.80
2019-05-23T02:20:50.432Z,11.63
2019-05-23T02:23:17.719Z,11.00
2019-05-23T02:25:46.068Z,11.35
2019-05-23T02:28:13.297Z,11.25
2019-05-23T02:30:40.610Z,11.55
2019-05-23T02:33:09.634Z,11.60
2019-05-23T02:35:38.194Z,11.20
2019-05-23T02:38:13.465Z,11.18
2019-05-23T02:40:48.598Z,10.53
2019-05-23T02:43:20.448Z,11.03
2019-05-23T02:45:49.465Z,10.68
2019-05-23T02:48:30.485Z,11.53
2019-05-23T02:51:03.327Z,11.53
2019-05-23T02:53:30.942Z,11.63
2019-05-23T02:55:59.487Z,11.40
2019-05-23T02:58:30.364Z,11.93
2019-05-23T03:01:01.283Z,11.05
2019-05-23T03:03:29.545Z,11.45
2019-05-23T03:05:58.615Z,11.00
2019-05-23T03:08:26.966Z,11.05
2019-05-23T03:10:57.112Z,12.47
2019-05-23T03:13:25.945Z,12.07
2019-05-23T03:15:55.022Z,11.55
2019-05-23T03:18:23.292Z,12.75
2019-05-23T03:20:51.539Z,11.70
2019-05-23T03:23:18.825Z,12.23
2019-05-23T03:25:58.885Z,12.23
2019-05-23T03:28:27.008Z,13.03
2019-05-23T03:31:25.161Z,14.13
2019-05-23T03:33:28.088Z,15.35
2019-05-23T03:35:57.142Z,14.63
2019-05-23T03:38:24.431Z,13.20
2019-05-23T03:40:51.968Z,15.32
2019-05-23T03:43:19.648Z,14.83
2019-05-23T03:46:03.634Z,14.25
2019-05-23T03:48:30.874Z,13.13
2019-05-23T03:50:59.109Z,12.73
2019-05-23T03:53:28.289Z,9.55
2019-05-23T03:55:57.362Z,9.85
2019-05-23T03:58:24.946Z,10.03
2019-05-23T04:00:56.813Z,9.80
2019-05-23T04:03:24.600Z,9.28
2019-05-23T04:05:51.968Z,9.85
2019-05-23T04:08:20.368Z,10.20
2019-05-23T04:10:51.369Z,11.60
2019-05-23T04:13:16.948Z,13.38
2019-05-23T04:15:44.388Z,13.10
2019-05-23T04:18:11.860Z,14.13
2019-05-23T04:20:39.079Z,13.03
2019-05-23T04:23:07.562Z,13.25
2019-05-23T04:25:34.951Z,13.08
2019-05-23T04:28:02.587Z,14.60
2019-05-23T04:30:29.884Z,13.88
2019-05-23T04:32:57.117Z,12.60
2019-05-23T04:35:24.359Z,12.90
2019-05-23T04:37:51.668Z,15.95
2019-05-23T04:40:19.100Z,12.98
2019-05-23T04:42:46.400Z,11.93
2019-05-23T04:45:14.316Z,12.20
2019-05-23T04:47:41.637Z,12.10
2019-05-23T04:50:09.691Z,12.93
2019-05-23T04:52:37.604Z,13.68
2019-05-23T04:55:06.548Z,12.70
2019-05-23T04:57:33.990Z,12.55
2019-05-23T05:00:01.406Z,11.93
2019-05-23T05:02:29.762Z,12.15
2019-05-23T05:04:58.044Z,12.73
2019-05-23T05:07:25.328Z,13.98
2019-05-23T05:09:53.309Z,13.18
2019-05-23T05:12:22.887Z,12.85
2019-05-23T05:14:50.990Z,11.43
2019-05-23T05:17:18.323Z,11.70
2019-05-23T05:19:45.727Z,11.40
2019-05-23T05:22:14.028Z,11.80
2019-05-23T05:24:41.287Z,10.82
2019-05-23T05:27:08.539Z,10.15
2019-05-23T05:29:35.818Z,10.65
2019-05-23T05:32:04.267Z,10.68
2019-05-23T05:34:31.580Z,10.43
2019-05-23T05:36:58.895Z,9.53
2019-05-23T05:39:26.106Z,9.25
2019-05-23T05:41:53.859Z,9.45
2019-05-23T05:44:22.676Z,7.97
2019-05-23T05:46:49.972Z,7.72
2019-05-23T05:49:17.253Z,6.78
2019-05-23T05:51:44.613Z,7.75
2019-05-23T05:54:11.905Z,6.72
2019-05-23T05:56:39.202Z,11.57
2019-05-23T05:59:06.862Z,33.02
2019-05-23T06:01:34.695Z,7.30
2019-05-23T06:04:03.354Z,6.67
2019-05-23T06:06:35.267Z,6.80
2019-05-23T06:09:16.523Z,5.97
2019-05-23T06:11:43.820Z,5.62
2019-05-23T06:14:11.173Z,5.42
2019-05-23T06:16:38.446Z,5.12
2019-05-23T06:19:05.841Z,5.45
2019-05-23T06:21:34.581Z,5.90
2019-05-23T06:24:02.147Z,5.30
2019-05-23T06:26:29.654Z,4.92
2019-05-23T06:28:56.851Z,5.65
2019-05-23T06:31:24.276Z,5.62
2019-05-23T06:33:51.675Z,5.75
2019-05-23T06:36:19.220Z,5.33
2019-05-23T06:38:46.468Z,4.33
2019-05-23T06:41:13.861Z,4.08
2019-05-23T06:43:41.454Z,3.70
2019-05-23T06:46:09.012Z,4.22
2019-05-23T06:48:36.824Z,3.25
2019-05-23T06:51:04.135Z,3.37
2019-05-23T06:53:31.404Z,3.47
2019-05-23T06:55:58.809Z,3.85
2019-05-23T06:58:26.311Z,3.55
2019-05-23T07:00:53.602Z,3.20
2019-05-23T07:03:20.931Z,3.45
2019-05-23T07:05:48.198Z,2.98
2019-05-23T07:08:15.434Z,3.02
2019-05-23T07:10:44.656Z,2.25
2019-05-23T07:13:15.791Z,2.35
2019-05-23T07:15:44.267Z,1.85
2019-05-23T07:18:12.432Z,3.98
2019-05-23T07:20:40.726Z,1.37
2019-05-23T07:23:09.981Z,49.77
2019-05-23T07:25:37.274Z,2.83
2019-05-23T07:28:04.647Z,5.60
2019-05-23T07:30:31.955Z,1.70
2019-05-23T07:32:59.537Z,1.55
2019-05-23T07:35:26.943Z,1.30
2019-05-23T07:37:54.302Z,1.90
2019-05-23T07:40:22.436Z,1.67
2019-05-23T07:42:49.887Z,1.45
2019-05-23T07:45:22.260Z,1.40
2019-05-23T07:47:49.498Z,1.30
2019-05-23T07:50:16.755Z,1.50
2019-05-23T07:52:44.048Z,1.37
2019-05-23T07:55:13.079Z,1.40
2019-05-23T07:57:40.290Z,1.45
2019-05-23T08:00:09.447Z,1.75
2019-05-23T08:02:37.878Z,1.50
2019-05-23T08:05:06.555Z,1.50
2019-05-23T08:07:33.940Z,2.20
2019-05-23T08:10:04.703Z,2.10
2019-05-23T08:12:31.926Z,2.30
2019-05-23T08:14:59.227Z,2.08
2019-05-23T08:17:26.446Z,2.50
2019-05-23T08:19:53.664Z,2.40
2019-05-23T08:22:20.952Z,1.95
2019-05-23T08:24:51.098Z,2.05
2019-05-23T08:27:17.713Z,5.75
2019-05-23T08:29:44.975Z,3.20
2019-05-23T08:32:12.586Z,2.85
2019-05-23T08:34:42.620Z,2.42
2019-05-23T08:37:11.033Z,2.62
2019-05-23T08:39:39.948Z,2.77
2019-05-23T08:42:08.166Z,3.00
2019-05-23T08:44:35.453Z,2.90
2019-05-23T08:47:04.487Z,2.98
2019-05-23T08:49:32.334Z,2.40
2019-05-23T08:51:59.634Z,2.37
2019-05-23T08:54:27.205Z,2.47
2019-05-23T08:56:54.420Z,2.50
2019-05-23T08:59:21.835Z,2.30
2019-05-23T09:01:49.065Z,2.33
2019-05-23T09:04:16.354Z,2.50
2019-05-23T09:06:44.031Z,2.30
2019-05-23T09:09:28.323Z,2.70
2019-05-23T09:11:41.694Z,1.92
2019-05-23T09:14:09.711Z,2.67
2019-05-23T09:16:37.243Z,3.27
2019-05-23T09:19:04.468Z,2.30
2019-05-23T09:21:31.802Z,2.10
2019-05-23T09:23:59.163Z,1.90
2019-05-23T09:26:27.199Z,1.90
2019-05-23T09:28:54.582Z,1.70
2019-05-23T09:31:22.426Z,1.87
2019-05-23T09:33:49.661Z,1.92
2019-05-23T09:36:17.023Z,1.77
2019-05-23T09:38:45.754Z,1.60
2019-05-23T09:41:12.974Z,1.62
2019-05-23T09:43:40.261Z,1.82
2019-05-23T09:46:07.479Z,2.60
2019-05-23T09:48:35.327Z,1.60
2019-05-23T09:51:02.849Z,1.95
2019-05-23T09:53:30.049Z,1.40
2019-05-23T09:55:57.334Z,2.72
2019-05-23T09:58:24.647Z,1.32
2019-05-23T10:00:51.855Z,1.47
2019-05-23T10:03:19.170Z,1.37
2019-05-23T10:05:46.586Z,1.67
2019-05-23T10:08:13.923Z,1.65
2019-05-23T10:10:41.182Z,1.57
2019-05-23T10:13:09.491Z,1.50
2019-05-23T10:15:38.521Z,1.07
2019-05-23T10:18:05.948Z,1.47
2019-05-23T10:20:33.426Z,1.95
2019-05-23T10:23:00.669Z,2.52
2019-05-23T10:25:29.156Z,2.50
2019-05-23T10:27:57.210Z,1.10
2019-05-23T10:30:25.267Z,1.20
2019-05-23T10:32:52.516Z,2.35
2019-05-23T10:35:20.234Z,1.00
2019-05-23T10:37:47.465Z,1.00
2019-05-23T10:40:15.488Z,1.10
2019-05-23T10:42:43.475Z,3.15
2019-05-23T10:45:11.217Z,0.98
2019-05-23T10:47:38.500Z,1.00
2019-05-23T10:50:08.767Z,1.42
2019-05-23T10:52:36.338Z,1.00
2019-05-23T10:55:03.792Z,1.02
2019-05-23T10:57:31.188Z,0.90
2019-05-23T10:59:58.438Z,0.98
2019-05-23T11:02:27.144Z,0.80
2019-05-23T11:04:54.563Z,0.60
2019-05-23T11:07:21.974Z,0.80
2019-05-23T11:09:49.215Z,1.00
2019-05-23T11:12:16.727Z,1.05
2019-05-23T11:14:44.029Z,0.90
2019-05-23T11:17:11.957Z,2.42
2019-05-23T11:19:39.542Z,3.12
2019-05-23T11:22:07.567Z,2.87
2019-05-23T11:24:34.782Z,1.00
2019-05-23T11:27:02.287Z,1.30
2019-05-23T11:29:31.371Z,1.07
2019-05-23T11:31:58.715Z,1.17
2019-05-23T11:34:26.951Z,1.10
2019-05-23T11:36:54.244Z,0.88
2019-05-23T11:39:25.558Z,0.90
2019-05-23T11:41:52.941Z,1.10
2019-05-23T11:44:20.241Z,1.12
2019-05-23T11:46:47.674Z,1.40
2019-05-23T11:49:15.138Z,1.17
2019-05-23T11:51:42.609Z,0.98
2019-05-23T11:54:10.294Z,1.22
2019-05-23T11:56:39.557Z,0.98
2019-05-23T11:59:07.784Z,1.00
2019-05-23T12:01:36.823Z,0.80
2019-05-23T12:04:05.947Z,0.90
2019-05-23T12:06:53.667Z,0.95
2019-05-23T12:09:08.034Z,0.82
2019-05-23T12:11:38.002Z,0.70
2019-05-23T12:14:04.314Z,1.90
2019-05-23T12:16:32.301Z,0.62
2019-05-23T12:18:59.594Z,2.47
2019-05-23T12:21:26.815Z,2.98
2019-05-23T12:23:54.112Z,0.62
2019-05-23T12:26:21.348Z,0.70
2019-05-23T12:28:48.576Z,0.90
2019-05-23T12:31:17.707Z,0.70
2019-05-23T12:33:44.927Z,0.80
2019-05-23T12:36:12.877Z,0.60
2019-05-23T12:38:40.170Z,0.68
2019-05-23T12:41:09.216Z,0.80
2019-05-23T12:43:36.475Z,1.02
2019-05-23T12:46:03.792Z,0.50
2019-05-23T12:48:41.774Z,0.50
2019-05-23T12:51:13.681Z,0.70
2019-05-23T12:53:41.059Z,0.88
2019-05-23T12:56:08.358Z,0.50
2019-05-23T12:58:37.097Z,0.50
2019-05-23T13:01:06.198Z,0.60
2019-05-23T13:03:33.571Z,0.80
2019-05-23T13:06:00.881Z,0.88
2019-05-23T13:08:28.813Z,0.68
2019-05-23T13:10:56.050Z,0.60
2019-05-23T13:13:23.584Z,0.60
2019-05-23T13:15:50.794Z,2.00
2019-05-23T13:18:19.039Z,3.55
2019-05-23T13:20:46.804Z,3.77
2019-05-23T13:23:20.914Z,3.80
2019-05-23T13:25:45.499Z,3.85
2019-05-23T13:28:13.099Z,3.50
2019-05-23T13:30:40.331Z,4.00
2019-05-23T13:33:08.977Z,3.60
2019-05-23T13:35:37.477Z,12.18
2019-05-23T13:38:06.720Z,17.55
2019-05-23T13:40:33.954Z,7.35
2019-05-23T13:43:01.331Z,4.90
2019-05-23T13:45:28.652Z,5.20
2019-05-23T13:47:56.351Z,5.30
2019-05-23T13:50:24.256Z,3.15
2019-05-23T13:52:51.881Z,4.87
2019-05-23T13:55:19.360Z,3.75
2019-05-23T13:57:46.722Z,4.85
2019-05-23T14:00:14.801Z,4.97
2019-05-23T14:02:42.192Z,7.08
2019-05-23T14:05:09.908Z,6.53
2019-05-23T14:07:38.184Z,5.83
2019-05-23T14:10:09.755Z,4.15
2019-05-23T14:12:37.286Z,4.78
2019-05-23T14:15:04.745Z,4.58
2019-05-23T14:17:37.986Z,6.15
2019-05-23T14:20:05.289Z,9.40
2019-05-23T14:22:34.350Z,15.08
2019-05-23T14:25:01.765Z,6.75
2019-05-23T14:27:30.826Z,5.50
2019-05-23T14:29:58.147Z,10.58
2019-05-23T14:32:45.237Z,25.05
2019-05-23T14:35:15.875Z,9.33
2019-05-23T14:37:48.076Z,8.78
2019-05-23T14:40:16.023Z,6.05
2019-05-23T14:42:55.227Z,6.60
2019-05-23T14:45:30.290Z,6.50
2019-05-23T14:48:02.154Z,6.15
2019-05-23T14:50:43.153Z,7.10
2019-05-23T14:53:12.255Z,7.05
2019-05-23T14:55:39.877Z,7.60
2019-05-23T14:58:07.804Z,8.60
2019-05-23T15:00:35.099Z,8.98
2019-05-23T15:03:02.862Z,12.95
2019-05-23T15:05:30.189Z,5.60
2019-05-23T15:07:57.819Z,5.97
2019-05-23T15:10:25.287Z,5.47
2019-05-23T15:12:52.538Z,7.45
2019-05-23T15:15:19.822Z,7.90
2019-05-23T15:17:47.039Z,8.53
2019-05-23T15:20:14.293Z,9.78
2019-05-23T15:22:41.582Z,9.88
2019-05-23T15:25:08.860Z,10.40
2019-05-23T15:27:36.515Z,11.35
2019-05-23T15:30:04.655Z,13.08
2019-05-23T15:32:31.880Z,18.50
2019-05-23T15:34:59.633Z,22.45
2019-05-23T15:37:27.341Z,20.27
2019-05-23T15:39:54.563Z,21.62
2019-05-23T15:42:21.803Z,19.92
2019-05-23T15:44:49.101Z,21.02
2019-05-23T15:47:18.131Z,19.20
2019-05-23T15:49:47.166Z,21.33
2019-05-23T15:52:19.311Z,20.08
2019-05-23T15:54:57.246Z,22.50
2019-05-23T15:57:42.984Z,20.88
2019-05-23T16:00:20.948Z,21.25
2019-05-23T16:02:59.274Z,22.65
2019-05-23T16:05:26.552Z,26.97
2019-05-23T16:07:54.014Z,27.85
2019-05-23T16:10:22.360Z,28.07
2019-05-23T16:12:49.600Z,28.15
2019-05-23T16:15:16.856Z,29.05
2019-05-23T16:17:44.237Z,28.50
2019-05-23T16:20:13.503Z,27.98
2019-05-23T16:22:40.815Z,28.42
2019-05-23T16:25:09.434Z,23.40
2019-05-23T16:27:37.976Z,21.90
2019-05-23T16:30:05.713Z,20.95
2019-05-23T16:32:33.397Z,17.37
2019-05-23T16:35:00.638Z,19.50
2019-05-23T16:37:28.188Z,17.40
2019-05-23T16:39:55.472Z,16.80
2019-05-23T16:42:22.867Z,16.90
2019-05-23T16:44:50.148Z,20.10
2019-05-23T16:47:17.579Z,17.80
2019-05-23T16:49:44.826Z,19.67
2019-05-23T16:52:12.322Z,27.52
2019-05-23T16:54:41.459Z,20.27
2019-05-23T16:57:10.524Z,27.65
2019-05-23T16:59:48.903Z,20.90
2019-05-23T17:02:26.821Z,26.27
2019-05-23T17:05:09.229Z,20.08
2019-05-23T17:07:44.880Z,22.25
2019-05-23T17:10:14.021Z,20.43
2019-05-23T17:12:43.024Z,18.75
2019-05-23T17:15:28.758Z,21.62
2019-05-23T17:18:03.320Z,19.40
2019-05-23T17:20:46.494Z,16.15
2019-05-23T17:23:33.618Z,18.23
2019-05-23T17:26:19.148Z,17.23
2019-05-23T17:28:48.212Z,20.57
2019-05-23T17:31:17.273Z,19.48
2019-05-23T17:33:44.920Z,18.80
2019-05-23T17:36:12.479Z,18.40
2019-05-23T17:38:41.606Z,19.85
2019-05-23T17:41:09.299Z,18.95
2019-05-23T17:43:36.543Z,18.40
2019-05-23T17:46:03.770Z,17.45
2019-05-23T17:48:31.068Z,16.55
2019-05-23T17:50:58.344Z,16.85
2019-05-23T17:53:25.596Z,18.52
2019-05-23T17:55:52.998Z,16.67
2019-05-23T17:58:22.266Z,18.98
2019-05-23T18:00:49.914Z,112.28
2019-05-23T18:03:17.235Z,25.37
2019-05-23T18:05:45.614Z,19.85
2019-05-23T18:08:14.550Z,18.00
2019-05-23T18:10:45.092Z,17.50
2019-05-23T18:13:11.638Z,20.25
2019-05-23T18:15:40.095Z,18.75
2019-05-23T18:18:07.478Z,19.27
2019-05-23T18:20:35.209Z,19.45
2019-05-23T18:23:03.138Z,18.32
2019-05-23T18:25:30.592Z,17.82
2019-05-23T18:27:57.859Z,19.60
2019-05-23T18:30:43.569Z,33.50
2019-05-23T18:33:12.623Z,24.37
2019-05-23T18:35:41.059Z,19.92
2019-05-23T18:38:11.502Z,20.97
2019-05-23T18:40:39.624Z,13.83
2019-05-23T18:43:06.862Z,19.80
2019-05-23T18:45:35.486Z,19.15
2019-05-23T18:48:02.760Z,20.60
2019-05-23T18:50:30.520Z,18.95
2019-05-23T18:52:59.018Z,19.62
2019-05-23T18:55:26.806Z,18.98
2019-05-23T18:57:54.156Z,18.45
2019-05-23T19:00:39.712Z,19.80
2019-05-23T19:03:07.062Z,20.80
2019-05-23T19:05:34.310Z,18.35
2019-05-23T19:08:01.988Z,19.70
2019-05-23T19:10:29.235Z,20.20
2019-05-23T19:12:56.533Z,19.37
2019-05-23T19:15:24.913Z,18.00
2019-05-23T19:17:52.143Z,20.25
2019-05-23T19:20:20.417Z,17.45
2019-05-23T19:22:47.941Z,16.00
2019-05-23T19:25:15.532Z,17.48
2019-05-23T19:27:42.812Z,14.93
2019-05-23T19:30:10.457Z,16.82
2019-05-23T19:32:39.609Z,16.07
2019-05-23T19:35:08.503Z,15.60
2019-05-23T19:37:36.625Z,15.23
2019-05-23T19:40:04.553Z,16.32
2019-05-23T19:42:33.224Z,16.12
2019-05-23T19:45:03.095Z,15.40
2019-05-23T19:47:31.373Z,15.28
2019-05-23T19:49:58.688Z,15.72
2019-05-23T19:52:25.939Z,14.80
2019-05-23T19:54:53.171Z,14.73
2019-05-23T19:57:20.788Z,15.10
2019-05-23T19:59:49.234Z,15.93
2019-05-23T20:02:33.168Z,15.48
2019-05-23T20:05:02.265Z,15.45
2019-05-23T20:07:30.681Z,11.25
2019-05-23T20:09:57.937Z,14.47
2019-05-23T20:12:25.559Z,15.40
2019-05-23T20:14:53.142Z,14.80
2019-05-23T20:17:21.136Z,16.27
2019-05-23T20:19:50.570Z,15.68
2019-05-23T20:22:17.954Z,14.73
2019-05-23T20:24:45.211Z,14.25
2019-05-23T20:27:12.502Z,14.80
2019-05-23T20:29:39.723Z,15.60
2019-05-23T20:32:09.128Z,15.53
2019-05-23T20:34:36.427Z,14.05
2019-05-23T20:37:03.679Z,14.13
2019-05-23T20:39:31.535Z,14.35
2019-05-23T20:42:10.827Z,15.68
2019-05-23T20:44:28.143Z,14.70
2019-05-23T20:46:55.399Z,15.15
2019-05-23T20:49:22.751Z,13.80
2019-05-23T20:51:51.981Z,14.53
2019-05-23T20:54:19.238Z,13.88
2019-05-23T20:56:47.392Z,15.50
2019-05-23T20:59:14.865Z,13.90
2019-05-23T21:01:42.538Z,12.82
2019-05-23T21:04:09.830Z,13.85
2019-05-23T21:06:39.809Z,12.45
2019-05-23T21:09:08.891Z,13.75
2019-05-23T21:11:36.119Z,13.43
2019-05-23T21:14:03.378Z,12.88
2019-05-23T21:16:30.681Z,12.85
2019-05-23T21:18:57.933Z,12.55
2019-05-23T21:21:25.215Z,12.90
2019-05-23T21:23:56.624Z,12.28
2019-05-23T21:26:21.530Z,13.20
2019-05-23T21:28:48.797Z,13.32
2019-05-23T21:31:17.907Z,11.55
2019-05-23T21:33:45.117Z,13.58
2019-05-23T21:36:12.339Z,13.00
2019-05-23T21:38:39.624Z,13.10
2019-05-23T21:41:06.913Z,12.98
2019-05-23T21:43:34.190Z,13.43
2019-05-23T21:46:01.735Z,12.65
2019-05-23T21:48:28.967Z,13.10
2019-05-23T21:50:56.188Z,13.48
2019-05-23T21:53:23.514Z,11.48
2019-05-23T21:55:50.753Z,12.20
2019-05-23T21:58:18.054Z,12.35
2019-05-23T22:01:01.068Z,11.65
2019-05-23T22:03:30.103Z,12.23
2019-05-23T22:05:57.309Z,11.78
2019-05-23T22:08:24.619Z,11.93
2019-05-23T22:10:51.859Z,10.50
2019-05-23T22:13:19.980Z,11.65
2019-05-23T22:15:47.379Z,11.40
2019-05-23T22:18:15.158Z,11.08
2019-05-23T22:20:42.373Z,11.40
2019-05-23T22:23:09.663Z,11.57
2019-05-23T22:25:36.948Z,11.00
2019-05-23T22:28:05.499Z,11.15
2019-05-23T22:30:32.820Z,11.15
2019-05-23T22:33:00.305Z,11.55
2019-05-23T22:35:27.690Z,11.03
2019-05-23T22:37:55.366Z,10.80
2019-05-23T22:40:22.769Z,10.80
2019-05-23T22:42:50.036Z,9.98
2019-05-23T22:45:19.173Z,10.38
2019-05-23T22:47:46.829Z,11.43
2019-05-23T22:50:14.027Z,11.08
2019-05-23T22:52:41.309Z,10.72
2019-05-23T22:55:08.689Z,11.53
2019-05-23T22:57:36.292Z,11.38
2019-05-23T23:00:04.470Z,10.50
2019-05-23T23:02:32.732Z,10.78
2019-05-23T23:04:59.983Z,11.28
2019-05-23T23:07:28.415Z,10.88
2019-05-23T23:09:55.639Z,11.03
2019-05-23T23:12:22.918Z,10.38
2019-05-23T23:14:50.240Z,11.12
2019-05-23T23:17:19.174Z,10.80
2019-05-23T23:19:46.495Z,10.55
2019-05-23T23:22:13.836Z,10.80
2019-05-23T23:24:41.032Z,11.20
2019-05-23T23:27:08.487Z,11.15
2019-05-23T23:29:35.832Z,11.30
2019-05-23T23:32:03.903Z,11.35
2019-05-23T23:34:32.215Z,11.03
2019-05-23T23:36:59.500Z,10.90
2019-05-23T23:39:26.854Z,11.00
2019-05-23T23:41:54.115Z,11.55
2019-05-23T23:44:22.390Z,11.48
2019-05-23T23:47:08.089Z,11.35
2019-05-23T23:49:55.270Z,10.38
2019-05-23T23:52:40.956Z,10.90
2019-05-23T23:55:26.268Z,11.57
2019-05-23T23:57:59.095Z,9.75
